createdAt,value
2016-07-31T00:00:33.039Z,16.15
2016-07-31T00:01:33.329Z,16.11
2016-07-31T00:02:33.622Z,16.14
2016-07-31T00:03:33.028Z,16.05
2016-07-31T00:04:33.470Z,16.07
2016-07-31T00:05:33.021Z,16.09
2016-07-31T00:06:33.016Z,16.07
2016-07-31T00:07:34.112Z,16.09
2016-07-31T00:08:33.009Z,16.07
2016-07-31T00:09:48.132Z,16.04
2016-07-31T00:10:33.509Z,16.07
2016-07-31T00:11:33.653Z,16.01
2016-07-31T00:12:33.110Z,15.93
2016-07-31T00:13:33.006Z,16.01
2016-07-31T00:14:33.003Z,16
2016-07-31T00:15:32.997Z,16.02
2016-07-31T00:16:32.996Z,16
2016-07-31T00:17:32.995Z,16.02
2016-07-31T00:18:32.997Z,15.94
2016-07-31T00:19:33.686Z,16
2016-07-31T00:20:32.997Z,15.96
2016-07-31T00:21:32.984Z,16.01
2016-07-31T00:22:32.983Z,15.92
2016-07-31T00:23:32.978Z,15.97
2016-07-31T00:24:32.979Z,15.92
2016-07-31T00:25:32.974Z,15.96
2016-07-31T00:26:32.972Z,16
2016-07-31T00:27:32.969Z,16
2016-07-31T00:28:32.965Z,15.96
2016-07-31T00:29:32.963Z,16.02
2016-07-31T00:30:32.968Z,15.97
2016-07-31T00:31:32.955Z,16.02
2016-07-31T00:32:32.959Z,15.97
2016-07-31T00:33:32.966Z,15.94
2016-07-31T00:34:32.959Z,15.94
2016-07-31T00:35:32.951Z,16.01
2016-07-31T00:36:32.951Z,16.02
2016-07-31T00:37:32.954Z,16
2016-07-31T00:38:32.939Z,16.01
2016-07-31T00:39:32.940Z,16.08
2016-07-31T00:40:32.943Z,16.14
2016-07-31T00:41:32.939Z,16.09
2016-07-31T00:42:32.937Z,16.08
2016-07-31T00:43:32.933Z,16.02
2016-07-31T00:44:32.931Z,16.07
2016-07-31T00:45:32.929Z,16.08
2016-07-31T00:46:32.920Z,16.02
2016-07-31T00:47:32.938Z,16.01
2016-07-31T00:48:32.923Z,15.96
2016-07-31T00:49:32.915Z,15.94
2016-07-31T00:50:32.918Z,15.93
2016-07-31T00:51:32.913Z,16
2016-07-31T00:52:32.918Z,16.01
2016-07-31T00:54:35.353Z,16.01
2016-07-31T00:55:33.206Z,16.02
2016-07-31T00:56:34.096Z,16.07
2016-07-31T00:57:33.577Z,16.08
2016-07-31T00:58:32.897Z,16.05
2016-07-31T00:59:32.894Z,16.07
2016-07-31T01:00:32.894Z,16.08
2016-07-31T01:01:32.896Z,16.09
2016-07-31T01:02:33.346Z,16.11
2016-07-31T01:03:33.245Z,16.12
2016-07-31T01:04:35.029Z,16.14
2016-07-31T01:05:33.173Z,16.09
2016-07-31T01:06:33.238Z,16.21
2016-07-31T01:07:32.884Z,16.2
2016-07-31T01:08:33.386Z,16.21
2016-07-31T01:09:32.871Z,16.17
2016-07-31T01:10:32.871Z,16.23
2016-07-31T01:11:32.875Z,16.25
2016-07-31T01:12:32.880Z,16.21
2016-07-31T01:13:32.856Z,16.24
2016-07-31T01:14:32.859Z,16.24
2016-07-31T01:15:32.854Z,16.25
2016-07-31T01:16:34.108Z,16.28
2016-07-31T01:17:33.161Z,16.2
2016-07-31T01:18:32.860Z,16.27
2016-07-31T01:19:33.149Z,16.27
2016-07-31T01:20:32.854Z,16.24
2016-07-31T01:21:32.992Z,16.27
2016-07-31T01:22:32.844Z,16.27
2016-07-31T01:23:33.087Z,16.25
2016-07-31T01:24:32.836Z,16.25
2016-07-31T01:26:48.650Z,16.24
2016-07-31T01:27:34.383Z,16.31
2016-07-31T01:28:34.434Z,16.15
2016-07-31T01:29:32.828Z,16.27
2016-07-31T01:30:33.528Z,16.2
2016-07-31T01:31:33.223Z,16.24
2016-07-31T01:32:32.818Z,16.23
2016-07-31T01:33:32.870Z,16.09
2016-07-31T01:34:32.814Z,16.15
2016-07-31T01:35:32.818Z,16.17
2016-07-31T01:36:32.811Z,16.17
2016-07-31T01:37:32.811Z,16.23
2016-07-31T01:38:32.809Z,16.27
2016-07-31T01:39:32.798Z,16.2
2016-07-31T01:40:32.799Z,16.2
2016-07-31T01:41:32.795Z,16.3
2016-07-31T01:42:32.796Z,16.33
2016-07-31T01:43:32.794Z,16.25
2016-07-31T01:44:32.794Z,16.25
2016-07-31T01:45:32.789Z,16.27
2016-07-31T01:46:32.787Z,16.27
2016-07-31T01:47:32.786Z,16.21
2016-07-31T01:48:32.784Z,16.24
2016-07-31T01:49:32.778Z,16.33
2016-07-31T01:50:32.785Z,16.27
2016-07-31T01:51:32.776Z,16.25
2016-07-31T01:52:32.777Z,16.23
2016-07-31T01:53:32.771Z,16.12
2016-07-31T01:54:33.171Z,16.11
2016-07-31T01:55:32.769Z,16.11
2016-07-31T01:56:32.760Z,16.11
2016-07-31T01:57:32.763Z,16.05
2016-07-31T01:58:32.762Z,15.93
2016-07-31T01:59:32.755Z,15.96
2016-07-31T02:00:32.763Z,16.04
2016-07-31T02:01:32.758Z,16
2016-07-31T02:02:32.743Z,15.94
2016-07-31T02:03:32.750Z,15.92
2016-07-31T02:04:32.745Z,15.86
2016-07-31T02:05:32.743Z,15.9
2016-07-31T02:06:32.740Z,15.82
2016-07-31T02:07:32.739Z,15.84
2016-07-31T02:08:32.734Z,15.82
2016-07-31T02:09:32.734Z,15.75
2016-07-31T02:10:32.728Z,15.72
2016-07-31T02:11:33.599Z,15.75
2016-07-31T02:12:33.972Z,15.68
2016-07-31T02:13:32.724Z,15.62
2016-07-31T02:14:34.454Z,15.71
2016-07-31T02:15:32.719Z,15.62
2016-07-31T02:16:32.712Z,15.6
2016-07-31T02:17:33.100Z,15.65
2016-07-31T02:18:32.712Z,15.59
2016-07-31T02:19:32.711Z,15.51
2016-07-31T02:21:33.393Z,15.57
2016-07-31T02:22:34.098Z,15.6
2016-07-31T02:23:33.228Z,15.56
2016-07-31T02:24:34.082Z,15.53
2016-07-31T02:25:32.693Z,15.51
2016-07-31T02:26:32.698Z,15.39
2016-07-31T02:27:32.687Z,15.43
2016-07-31T02:28:32.686Z,15.5
2016-07-31T02:29:32.685Z,15.44
2016-07-31T02:30:32.682Z,15.43
2016-07-31T02:31:32.675Z,15.38
2016-07-31T02:32:32.675Z,15.44
2016-07-31T02:33:32.673Z,15.35
2016-07-31T02:34:48.734Z,15.47
2016-07-31T02:35:33.570Z,15.41
2016-07-31T02:36:33.169Z,15.38
2016-07-31T02:37:32.658Z,15.35
2016-07-31T02:38:32.659Z,15.32
2016-07-31T02:39:32.658Z,15.31
2016-07-31T02:40:32.756Z,15.32
2016-07-31T02:41:33.359Z,15.28
2016-07-31T02:42:32.656Z,15.29
2016-07-31T02:43:33.502Z,15.17
2016-07-31T02:44:33.693Z,15.23
2016-07-31T02:47:32.641Z,15.19
2016-07-31T02:48:32.877Z,15.16
2016-07-31T02:49:32.634Z,15.14
2016-07-31T02:50:32.630Z,15.19
2016-07-31T02:51:32.725Z,15.11
2016-07-31T02:52:32.623Z,15.09
2016-07-31T02:53:32.621Z,15.21
2016-07-31T02:54:32.617Z,15.1
2016-07-31T02:55:32.612Z,15.1
2016-07-31T02:56:32.611Z,15.14
2016-07-31T02:57:32.604Z,15.14
2016-07-31T02:58:32.604Z,15.03
2016-07-31T02:59:32.600Z,15.14
2016-07-31T03:00:32.595Z,15.19
2016-07-31T03:01:32.594Z,15.09
2016-07-31T03:02:32.597Z,15.13
2016-07-31T03:03:32.595Z,15.11
2016-07-31T03:04:32.584Z,15.19
2016-07-31T03:05:32.596Z,15.11
2016-07-31T03:06:32.580Z,15.14
2016-07-31T03:07:32.574Z,15.2
2016-07-31T03:08:32.584Z,15.17
2016-07-31T03:09:32.572Z,15.2
2016-07-31T03:10:32.570Z,15.2
2016-07-31T03:11:32.569Z,15.21
2016-07-31T03:12:32.565Z,15.19
2016-07-31T03:13:32.568Z,15.19
2016-07-31T03:14:32.559Z,15.21
2016-07-31T03:15:32.557Z,15.2
2016-07-31T03:16:32.546Z,15.25
2016-07-31T03:17:32.550Z,15.28
2016-07-31T03:18:32.546Z,15.23
2016-07-31T03:19:32.540Z,15.35
2016-07-31T03:20:32.544Z,15.35
2016-07-31T03:21:32.540Z,15.41
2016-07-31T03:22:32.535Z,15.46
2016-07-31T03:23:32.538Z,15.46
2016-07-31T03:24:32.536Z,15.44
2016-07-31T03:25:32.526Z,15.41
2016-07-31T03:26:33.224Z,15.5
2016-07-31T03:27:32.526Z,15.57
2016-07-31T03:30:33.732Z,15.65
2016-07-31T03:31:34.867Z,15.69
2016-07-31T03:32:34.340Z,15.72
2016-07-31T03:33:32.625Z,15.76
2016-07-31T03:34:33.400Z,15.76
2016-07-31T03:35:33.061Z,15.83
2016-07-31T03:36:32.498Z,15.92
2016-07-31T03:37:32.492Z,15.83
2016-07-31T03:38:34.066Z,16.01
2016-07-31T03:39:34.680Z,16
2016-07-31T03:40:32.731Z,15.96
2016-07-31T03:41:32.800Z,16
2016-07-31T03:42:32.479Z,16.08
2016-07-31T03:44:33.164Z,16.09
2016-07-31T03:45:32.604Z,16.2
2016-07-31T03:46:32.474Z,16.28
2016-07-31T03:47:32.470Z,16.24
2016-07-31T03:48:32.463Z,16.31
2016-07-31T03:49:32.479Z,16.42
2016-07-31T03:50:32.457Z,16.45
2016-07-31T03:51:32.453Z,16.53
2016-07-31T03:52:47.376Z,16.53
2016-07-31T03:53:47.922Z,16.63
2016-07-31T03:54:33.903Z,16.68
2016-07-31T03:55:32.449Z,16.71
2016-07-31T03:56:32.745Z,16.79
2016-07-31T03:57:32.438Z,16.82
2016-07-31T03:59:32.449Z,16.93
2016-07-31T04:00:32.437Z,16.89
2016-07-31T04:01:32.439Z,17.01
2016-07-31T04:03:32.880Z,17.07
2016-07-31T04:04:47.348Z,17.15
2016-07-31T04:05:32.429Z,17.14
2016-07-31T04:06:32.432Z,17.12
2016-07-31T04:07:33.122Z,17.12
2016-07-31T04:08:32.419Z,17.25
2016-07-31T04:09:32.424Z,17.28
2016-07-31T04:10:32.417Z,17.36
2016-07-31T04:11:32.418Z,17.34
2016-07-31T04:12:32.414Z,17.33
2016-07-31T04:13:32.415Z,17.36
2016-07-31T04:14:32.408Z,17.41
2016-07-31T04:15:32.414Z,17.48
2016-07-31T04:16:32.407Z,17.56
2016-07-31T04:17:32.411Z,17.58
2016-07-31T04:18:32.408Z,17.64
2016-07-31T04:19:32.403Z,17.74
2016-07-31T04:20:32.405Z,17.79
2016-07-31T04:21:32.400Z,17.86
2016-07-31T04:22:32.401Z,17.93
2016-07-31T04:23:32.405Z,17.93
2016-07-31T04:24:32.393Z,18.14
2016-07-31T04:25:32.393Z,18.14
2016-07-31T04:26:32.391Z,18.29
2016-07-31T04:27:32.390Z,18.27
2016-07-31T04:28:32.397Z,18.41
2016-07-31T04:29:32.388Z,18.51
2016-07-31T04:30:32.384Z,18.48
2016-07-31T04:31:32.387Z,18.58
2016-07-31T04:32:32.383Z,18.66
2016-07-31T04:33:32.388Z,18.66
2016-07-31T04:34:32.385Z,18.69
2016-07-31T04:35:32.392Z,18.67
2016-07-31T04:36:32.384Z,18.73
2016-07-31T04:37:32.389Z,18.67
2016-07-31T04:38:32.385Z,18.76
2016-07-31T04:39:32.378Z,18.76
2016-07-31T04:40:32.381Z,18.76
2016-07-31T04:41:32.383Z,18.81
2016-07-31T04:42:32.386Z,18.9
2016-07-31T04:43:32.383Z,18.94
2016-07-31T04:44:32.374Z,18.95
2016-07-31T04:45:32.382Z,19.06
2016-07-31T04:46:32.383Z,19.07
2016-07-31T04:48:32.716Z,19.29
2016-07-31T04:49:35.053Z,19.28
2016-07-31T04:50:32.379Z,19.33
2016-07-31T04:51:32.457Z,19.39
2016-07-31T04:52:32.374Z,19.43
2016-07-31T04:53:32.371Z,19.46
2016-07-31T04:54:32.379Z,19.59
2016-07-31T04:55:32.376Z,19.58
2016-07-31T04:56:32.729Z,19.73
2016-07-31T04:57:33.962Z,19.71
2016-07-31T04:58:33.115Z,19.77
2016-07-31T04:59:34.183Z,19.91
2016-07-31T05:00:32.376Z,19.87
2016-07-31T05:01:33.223Z,20.02
2016-07-31T05:02:32.375Z,20.02
2016-07-31T05:03:32.527Z,20.18
2016-07-31T05:04:32.376Z,20.28
2016-07-31T05:05:32.390Z,20.31
2016-07-31T05:06:32.376Z,20.42
2016-07-31T05:07:32.376Z,20.54
2016-07-31T05:08:32.380Z,20.67
2016-07-31T05:09:32.388Z,20.76
2016-07-31T05:10:32.378Z,20.82
2016-07-31T05:11:33.138Z,20.84
2016-07-31T05:12:33.129Z,20.87
2016-07-31T05:13:47.948Z,20.98
2016-07-31T05:15:33.181Z,21.13
2016-07-31T05:16:32.439Z,21.14
2016-07-31T05:17:32.387Z,21.21
2016-07-31T05:18:32.392Z,21.22
2016-07-31T05:19:32.394Z,21.38
2016-07-31T05:20:32.740Z,21.37
2016-07-31T05:21:47.809Z,21.44
2016-07-31T05:22:33.099Z,21.58
2016-07-31T05:23:32.450Z,21.71
2016-07-31T05:24:32.596Z,21.79
2016-07-31T05:25:33.253Z,21.82
2016-07-31T05:26:32.401Z,21.98
2016-07-31T05:27:32.614Z,22.22
2016-07-31T05:28:32.408Z,22.35
2016-07-31T05:29:32.412Z,22.46
2016-07-31T05:30:32.418Z,22.61
2016-07-31T05:31:32.419Z,22.57
2016-07-31T05:32:32.426Z,22.47
2016-07-31T05:33:32.428Z,22.6
2016-07-31T05:34:32.429Z,22.8
2016-07-31T05:35:32.429Z,22.95
2016-07-31T05:36:33.136Z,23.39
2016-07-31T05:37:32.442Z,23.83
2016-07-31T05:38:32.449Z,24.2
2016-07-31T05:39:32.452Z,24.65
2016-07-31T05:40:32.456Z,24.93
2016-07-31T05:41:32.463Z,25.17
2016-07-31T05:42:32.462Z,25.35
2016-07-31T05:43:32.474Z,25.57
2016-07-31T05:44:32.477Z,25.72
2016-07-31T05:45:32.484Z,25.77
2016-07-31T05:46:32.489Z,25.82
2016-07-31T05:47:32.495Z,25.82
2016-07-31T05:48:32.502Z,25.65
2016-07-31T05:49:32.515Z,25.62
2016-07-31T05:50:32.520Z,25.73
2016-07-31T05:51:32.528Z,25.95
2016-07-31T05:52:32.540Z,26.17
2016-07-31T05:53:32.541Z,26.23
2016-07-31T05:54:32.655Z,26.29
2016-07-31T05:55:32.553Z,26.33
2016-07-31T05:56:32.559Z,26.37
2016-07-31T05:57:32.573Z,26.55
2016-07-31T05:58:32.581Z,26.58
2016-07-31T05:59:32.589Z,26.69
2016-07-31T06:00:32.598Z,26.7
2016-07-31T06:01:32.603Z,26.73
2016-07-31T06:02:32.608Z,26.67
2016-07-31T06:03:32.628Z,26.84
2016-07-31T06:04:32.625Z,26.87
2016-07-31T06:05:32.637Z,26.88
2016-07-31T06:06:48.852Z,26.94
2016-07-31T06:07:32.694Z,26.97
2016-07-31T06:08:34.415Z,26.95
2016-07-31T06:09:32.664Z,27
2016-07-31T06:10:32.683Z,27.04
2016-07-31T06:11:32.675Z,26.99
2016-07-31T06:12:32.983Z,27.02
2016-07-31T06:13:32.685Z,26.99
2016-07-31T06:14:32.688Z,26.99
2016-07-31T06:16:32.700Z,27.03
2016-07-31T06:17:32.862Z,27.1
2016-07-31T06:18:33.726Z,27.09
2016-07-31T06:19:32.724Z,27.14
2016-07-31T06:20:32.736Z,27.12
2016-07-31T06:21:33.321Z,27.12
2016-07-31T06:22:32.743Z,27.28
2016-07-31T06:23:32.749Z,27.34
2016-07-31T06:24:32.768Z,27.32
2016-07-31T06:25:32.763Z,27.34
2016-07-31T06:26:32.770Z,27.41
2016-07-31T06:27:32.775Z,27.43
2016-07-31T06:28:32.784Z,27.44
2016-07-31T06:29:47.710Z,27.46
2016-07-31T06:30:33.055Z,27.43
2016-07-31T06:31:32.859Z,27.37
2016-07-31T06:32:32.808Z,27.37
2016-07-31T06:33:32.823Z,27.29
2016-07-31T06:34:32.830Z,27.32
2016-07-31T06:35:32.840Z,27.37
2016-07-31T06:36:32.845Z,27.25
2016-07-31T06:37:32.844Z,27.12
2016-07-31T06:38:33.549Z,27.04
2016-07-31T06:39:33.166Z,27.04
2016-07-31T06:40:47.891Z,26.87
2016-07-31T06:41:47.798Z,26.84
2016-07-31T06:42:32.887Z,26.95
2016-07-31T06:43:32.887Z,27.02
2016-07-31T06:44:33.050Z,27
2016-07-31T06:45:32.919Z,27.02
2016-07-31T06:46:32.919Z,27.09
2016-07-31T06:47:32.924Z,27.32
2016-07-31T06:48:32.931Z,27.46
2016-07-31T06:49:32.940Z,27.69
2016-07-31T06:50:32.946Z,27.96
2016-07-31T06:51:32.956Z,28.06
2016-07-31T06:52:32.965Z,28.19
2016-07-31T06:53:32.977Z,28.24
2016-07-31T06:54:32.980Z,28.41
2016-07-31T06:55:32.985Z,28.41
2016-07-31T06:56:32.994Z,28.61
2016-07-31T06:57:33.010Z,28.85
2016-07-31T06:58:33.012Z,28.96
2016-07-31T06:59:33.041Z,29.15
2016-07-31T07:00:33.733Z,29.12
2016-07-31T07:01:33.043Z,29.24
2016-07-31T07:02:33.057Z,29.31
2016-07-31T07:03:33.065Z,29.46
2016-07-31T07:04:33.068Z,29.58
2016-07-31T07:05:33.075Z,29.48
2016-07-31T07:06:33.092Z,29.31
2016-07-31T07:07:33.097Z,29.04
2016-07-31T07:08:33.106Z,28.78
2016-07-31T07:09:33.122Z,28.43
2016-07-31T07:10:33.128Z,28.22
2016-07-31T07:11:33.135Z,28.18
2016-07-31T07:12:33.143Z,28.31
2016-07-31T07:13:33.155Z,28.51
2016-07-31T07:14:33.166Z,28.44
2016-07-31T07:15:33.177Z,28.62
2016-07-31T07:16:33.182Z,28.73
2016-07-31T07:17:33.188Z,28.7
2016-07-31T07:18:33.202Z,28.64
2016-07-31T07:19:33.205Z,28.66
2016-07-31T07:20:33.223Z,28.64
2016-07-31T07:21:33.231Z,28.58
2016-07-31T07:22:33.237Z,28.43
2016-07-31T07:23:33.250Z,28.44
2016-07-31T07:24:33.260Z,28.34
2016-07-31T07:25:33.271Z,28.49
2016-07-31T07:26:33.277Z,28.54
2016-07-31T07:27:33.283Z,28.49
2016-07-31T07:28:33.297Z,28.33
2016-07-31T07:30:33.317Z,27.77
2016-07-31T07:31:33.324Z,27.59
2016-07-31T07:32:33.325Z,27.36
2016-07-31T07:33:33.343Z,27.25
2016-07-31T07:34:33.345Z,27.31
2016-07-31T07:35:33.354Z,27.09
2016-07-31T07:36:33.363Z,27.29
2016-07-31T07:37:33.370Z,27.46
2016-07-31T07:38:33.376Z,27.51
2016-07-31T07:39:33.383Z,27.75
2016-07-31T07:40:33.397Z,27.87
2016-07-31T07:41:33.403Z,28.02
2016-07-31T07:42:33.621Z,28.14
2016-07-31T07:43:33.424Z,28
2016-07-31T07:45:33.432Z,28.29
2016-07-31T07:46:33.442Z,28.64
2016-07-31T07:47:34.605Z,28.9
2016-07-31T07:48:34.114Z,28.92
2016-07-31T07:49:35.266Z,28.98
2016-07-31T07:50:33.477Z,29.26
2016-07-31T07:51:33.492Z,29.71
2016-07-31T07:52:33.849Z,30.24
2016-07-31T07:53:33.504Z,30.79
2016-07-31T07:54:33.618Z,31.19
2016-07-31T07:55:33.530Z,31.39
2016-07-31T07:56:33.837Z,31.7
2016-07-31T07:57:34.200Z,31.78
2016-07-31T07:58:33.565Z,31.85
2016-07-31T07:59:33.631Z,31.72
2016-07-31T08:00:33.591Z,31.43
2016-07-31T08:01:34.152Z,31.53
2016-07-31T08:02:33.605Z,31.63
2016-07-31T08:03:33.618Z,31.73
2016-07-31T08:04:33.630Z,31.85
2016-07-31T08:05:33.645Z,32.03
2016-07-31T08:06:33.653Z,32.08
2016-07-31T08:07:33.663Z,32.14
2016-07-31T08:08:33.669Z,32.14
2016-07-31T08:09:33.680Z,32.07
2016-07-31T08:10:33.696Z,31.8
2016-07-31T08:11:33.703Z,31.69
2016-07-31T08:12:33.717Z,31.32
2016-07-31T08:13:33.731Z,31.01
2016-07-31T08:15:33.748Z,30.89
2016-07-31T08:16:33.758Z,30.61
2016-07-31T08:17:33.774Z,30.38
2016-07-31T08:18:33.779Z,30.19
2016-07-31T08:19:34.478Z,30.07
2016-07-31T08:20:33.800Z,30.01
2016-07-31T08:21:33.806Z,29.95
2016-07-31T08:22:33.814Z,30.1
2016-07-31T08:23:33.828Z,30.07
2016-07-31T08:25:34.131Z,30.17
2016-07-31T08:26:34.940Z,30.15
2016-07-31T08:27:34.083Z,30.08
2016-07-31T08:28:34.977Z,30.13
2016-07-31T08:30:34.254Z,30.15
2016-07-31T08:31:33.904Z,30.23
2016-07-31T08:32:33.909Z,30.38
2016-07-31T08:33:35.443Z,30.55
2016-07-31T08:35:35.180Z,30.54
2016-07-31T08:36:34.883Z,30.46
2016-07-31T08:37:34.170Z,30.43
2016-07-31T08:38:34.478Z,30.47
2016-07-31T08:39:34.330Z,30.6
2016-07-31T08:40:33.990Z,30.83
2016-07-31T08:41:33.995Z,31.01
2016-07-31T08:42:34.003Z,31.04
2016-07-31T08:43:34.020Z,31.12
2016-07-31T08:45:34.035Z,31.12
2016-07-31T08:46:34.044Z,31.02
2016-07-31T08:47:34.052Z,31.04
2016-07-31T08:48:34.062Z,31.07
2016-07-31T08:49:34.073Z,31.07
2016-07-31T08:50:34.078Z,31.2
2016-07-31T08:51:34.085Z,31.14
2016-07-31T08:52:34.098Z,31.23
2016-07-31T08:53:34.105Z,31.34
2016-07-31T08:54:34.115Z,31.32
2016-07-31T08:55:34.125Z,31.23
2016-07-31T08:56:34.134Z,31.17
2016-07-31T08:57:34.147Z,31.2
2016-07-31T08:58:34.153Z,31.09
2016-07-31T08:59:34.161Z,31.02
2016-07-31T09:00:34.169Z,30.98
2016-07-31T09:01:34.186Z,31.04
2016-07-31T09:02:34.191Z,30.98
2016-07-31T09:03:34.200Z,30.97
2016-07-31T09:04:34.215Z,30.92
2016-07-31T09:05:34.217Z,30.94
2016-07-31T09:06:34.921Z,30.77
2016-07-31T09:07:34.438Z,30.67
2016-07-31T09:09:34.253Z,30.38
2016-07-31T09:10:34.265Z,30.1
2016-07-31T09:11:35.273Z,29.87
2016-07-31T09:12:34.287Z,29.48
2016-07-31T09:13:34.296Z,29.05
2016-07-31T09:14:34.307Z,28.78
2016-07-31T09:15:49.230Z,28.7
2016-07-31T09:16:34.579Z,28.7
2016-07-31T09:17:35.027Z,28.83
2016-07-31T09:18:34.337Z,28.95
2016-07-31T09:19:34.349Z,28.95
2016-07-31T09:20:34.350Z,29.02
2016-07-31T09:21:34.816Z,29.14
2016-07-31T09:22:34.377Z,29.18
2016-07-31T09:23:34.382Z,29.23
2016-07-31T09:24:34.386Z,29.28
2016-07-31T09:25:34.401Z,29.36
2016-07-31T09:26:34.403Z,29.34
2016-07-31T09:27:34.409Z,29.37
2016-07-31T09:28:34.425Z,29.37
2016-07-31T09:29:34.428Z,29.41
2016-07-31T09:30:34.443Z,29.34
2016-07-31T09:31:34.459Z,29.33
2016-07-31T09:32:34.458Z,29.3
2016-07-31T09:33:34.464Z,29.23
2016-07-31T09:34:34.475Z,29.3
2016-07-31T09:35:34.478Z,29.42
2016-07-31T09:36:34.493Z,29.58
2016-07-31T09:37:34.502Z,29.7
2016-07-31T09:38:34.503Z,29.82
2016-07-31T09:39:34.515Z,29.97
2016-07-31T09:40:34.524Z,30.05
2016-07-31T09:41:34.534Z,29.97
2016-07-31T09:42:36.017Z,30.15
2016-07-31T09:43:36.047Z,30.17
2016-07-31T09:44:36.132Z,30.13
2016-07-31T09:45:34.559Z,30.19
2016-07-31T09:46:36.035Z,30.08
2016-07-31T09:47:34.582Z,30.07
2016-07-31T09:48:34.641Z,29.94
2016-07-31T09:49:34.608Z,29.94
2016-07-31T09:50:34.604Z,30.08
2016-07-31T09:52:35.957Z,30.24
2016-07-31T09:53:34.726Z,30.47
2016-07-31T09:54:35.323Z,30.58
2016-07-31T09:55:35.517Z,30.75
2016-07-31T09:56:34.654Z,30.86
2016-07-31T09:57:34.988Z,31.02
2016-07-31T09:58:34.781Z,31.14
2016-07-31T09:59:34.690Z,31.13
2016-07-31T10:00:34.697Z,31.14
2016-07-31T10:01:34.705Z,31.2
2016-07-31T10:02:34.706Z,31.14
2016-07-31T10:03:34.721Z,31.01
2016-07-31T10:04:34.725Z,31.06
2016-07-31T10:05:35.434Z,31.2
2016-07-31T10:06:34.746Z,31.36
2016-07-31T10:07:35.455Z,31.54
2016-07-31T10:08:35.465Z,31.68
2016-07-31T10:09:34.774Z,31.88
2016-07-31T10:10:34.781Z,31.95
2016-07-31T10:11:34.787Z,31.89
2016-07-31T10:12:34.799Z,32.03
2016-07-31T10:13:34.811Z,31.99
2016-07-31T10:14:34.818Z,32.06
2016-07-31T10:15:34.826Z,32.14
2016-07-31T10:16:34.841Z,32.25
2016-07-31T10:17:34.861Z,32.19
2016-07-31T10:18:34.856Z,32.29
2016-07-31T10:19:34.867Z,32.19
2016-07-31T10:20:34.879Z,32.01
2016-07-31T10:21:34.885Z,32.03
2016-07-31T10:22:34.894Z,31.92
2016-07-31T10:23:34.902Z,32.03
2016-07-31T10:24:35.217Z,32.04
2016-07-31T10:25:35.530Z,32.18
2016-07-31T10:26:35.735Z,32.21
2016-07-31T10:27:35.039Z,32.3
2016-07-31T10:28:35.712Z,32.26
2016-07-31T10:29:35.313Z,32.22
2016-07-31T10:30:34.969Z,32.22
2016-07-31T10:31:34.984Z,32.25
2016-07-31T10:32:34.991Z,32.25
2016-07-31T10:34:50.029Z,32.48
2016-07-31T10:35:35.621Z,32.5
2016-07-31T10:36:35.032Z,32.47
2016-07-31T10:37:35.988Z,32.4
2016-07-31T10:38:35.049Z,32.29
2016-07-31T10:39:35.053Z,32.23
2016-07-31T10:40:35.069Z,32.15
2016-07-31T10:41:35.076Z,31.88
2016-07-31T10:42:35.077Z,31.88
2016-07-31T10:43:35.092Z,31.75
2016-07-31T10:44:35.109Z,31.68
2016-07-31T10:45:35.113Z,31.53
2016-07-31T10:46:35.118Z,31.47
2016-07-31T10:47:35.128Z,31.47
2016-07-31T10:48:35.138Z,31.26
2016-07-31T10:49:35.142Z,31.16
2016-07-31T10:50:35.151Z,31.17
2016-07-31T10:51:35.164Z,31.1
2016-07-31T10:52:35.167Z,30.99
2016-07-31T10:53:35.183Z,31.04
2016-07-31T10:54:35.190Z,31.01
2016-07-31T10:55:35.202Z,30.97
2016-07-31T10:56:35.209Z,31.01
2016-07-31T10:57:35.218Z,31.06
2016-07-31T10:58:35.222Z,31.16
2016-07-31T10:59:35.225Z,31.17
2016-07-31T11:01:36.042Z,31.2
2016-07-31T11:02:35.303Z,31.25
2016-07-31T11:03:36.437Z,31.34
2016-07-31T11:04:37.091Z,31.34
2016-07-31T11:05:36.353Z,31.35
2016-07-31T11:06:35.296Z,31.46
2016-07-31T11:07:35.302Z,31.43
2016-07-31T11:08:35.312Z,31.54
2016-07-31T11:09:35.322Z,31.68
2016-07-31T11:11:37.445Z,31.69
2016-07-31T11:12:35.619Z,31.68
2016-07-31T11:13:36.741Z,31.7
2016-07-31T11:14:36.483Z,31.8
2016-07-31T11:15:35.375Z,31.93
2016-07-31T11:16:35.382Z,31.89
2016-07-31T11:17:35.395Z,31.93
2016-07-31T11:18:35.435Z,31.85
2016-07-31T11:19:35.411Z,31.7
2016-07-31T11:20:35.419Z,31.44
2016-07-31T11:21:35.430Z,31.32
2016-07-31T11:22:35.430Z,30.98
2016-07-31T11:23:35.446Z,30.82
2016-07-31T11:24:35.447Z,30.62
2016-07-31T11:25:35.456Z,30.58
2016-07-31T11:26:35.461Z,30.39
2016-07-31T11:27:35.480Z,30.39
2016-07-31T11:28:35.484Z,30.38
2016-07-31T11:29:35.488Z,30.51
2016-07-31T11:30:35.509Z,30.43
2016-07-31T11:31:35.521Z,30.42
2016-07-31T11:32:35.515Z,30.43
2016-07-31T11:33:35.528Z,30.53
2016-07-31T11:34:35.537Z,30.45
2016-07-31T11:35:35.543Z,30.64
2016-07-31T11:36:35.552Z,30.64
2016-07-31T11:37:35.563Z,30.73
2016-07-31T11:38:35.564Z,30.84
2016-07-31T11:39:35.573Z,30.92
2016-07-31T11:40:35.583Z,30.95
2016-07-31T11:41:35.597Z,30.99
2016-07-31T11:42:36.199Z,31.06
2016-07-31T11:43:36.453Z,31.16
2016-07-31T11:44:50.834Z,31.16
2016-07-31T11:45:35.879Z,31.23
2016-07-31T11:46:35.782Z,31.32
2016-07-31T11:47:36.837Z,31.32
2016-07-31T11:48:35.652Z,31.29
2016-07-31T11:49:35.654Z,31.32
2016-07-31T11:50:35.661Z,31.2
2016-07-31T11:53:36.746Z,31.14
2016-07-31T11:54:37.500Z,31.19
2016-07-31T11:55:36.312Z,31.25
2016-07-31T11:56:35.718Z,31.23
2016-07-31T11:57:35.726Z,31.21
2016-07-31T11:58:35.728Z,31.35
2016-07-31T11:59:35.739Z,31.31
2016-07-31T12:01:35.755Z,31.41
2016-07-31T12:02:35.765Z,31.53
2016-07-31T12:03:35.780Z,31.41
2016-07-31T12:04:35.779Z,31.44
2016-07-31T12:05:35.783Z,31.36
2016-07-31T12:06:35.798Z,31.25
2016-07-31T12:07:35.809Z,31.19
2016-07-31T12:08:35.848Z,30.99
2016-07-31T12:09:35.823Z,30.86
2016-07-31T12:10:35.836Z,30.82
2016-07-31T12:11:35.835Z,30.62
2016-07-31T12:12:35.847Z,30.49
2016-07-31T12:13:35.860Z,30.47
2016-07-31T12:14:35.859Z,30.38
2016-07-31T12:16:35.880Z,30.24
2016-07-31T12:17:35.887Z,30.23
2016-07-31T12:18:35.894Z,30.32
2016-07-31T12:19:38.041Z,30.42
2016-07-31T12:20:38.067Z,30.43
2016-07-31T12:21:36.540Z,30.47
2016-07-31T12:22:38.103Z,30.42
2016-07-31T12:23:35.940Z,30.46
2016-07-31T12:24:35.943Z,30.38
2016-07-31T12:25:36.228Z,30.38
2016-07-31T12:26:35.964Z,30.47
2016-07-31T12:27:35.964Z,30.6
2016-07-31T12:28:37.499Z,30.79
2016-07-31T12:29:36.548Z,30.84
2016-07-31T12:30:35.994Z,30.98
2016-07-31T12:31:37.876Z,30.92
2016-07-31T12:32:36.016Z,30.89
2016-07-31T12:33:36.022Z,30.91
2016-07-31T12:34:36.029Z,30.98
2016-07-31T12:35:36.043Z,31.01
2016-07-31T12:36:36.040Z,31.12
2016-07-31T12:37:36.054Z,31.2
2016-07-31T12:38:36.061Z,31.14
2016-07-31T12:39:36.066Z,31.28
2016-07-31T12:40:36.086Z,31.32
2016-07-31T12:41:36.090Z,31.36
2016-07-31T12:42:36.093Z,31.36
2016-07-31T12:43:36.105Z,31.21
2016-07-31T12:44:36.112Z,31.32
2016-07-31T12:45:36.118Z,31.26
2016-07-31T12:46:36.126Z,31.16
2016-07-31T12:47:36.140Z,30.99
2016-07-31T12:48:36.152Z,30.97
2016-07-31T12:49:36.150Z,30.76
2016-07-31T12:50:36.161Z,30.67
2016-07-31T12:51:36.173Z,30.69
2016-07-31T12:52:36.181Z,30.57
2016-07-31T12:53:36.190Z,30.64
2016-07-31T12:54:36.295Z,30.51
2016-07-31T12:55:36.211Z,30.51
2016-07-31T12:56:36.210Z,30.47
2016-07-31T12:57:36.223Z,30.46
2016-07-31T12:58:36.228Z,30.46
2016-07-31T12:59:36.236Z,30.46
2016-07-31T13:01:51.922Z,30.51
2016-07-31T13:03:06.600Z,30.61
2016-07-31T13:03:36.267Z,30.73
2016-07-31T13:04:36.279Z,30.83
2016-07-31T13:05:36.291Z,31.04
2016-07-31T13:06:36.295Z,31.16
2016-07-31T13:07:36.299Z,31.32
2016-07-31T13:08:36.307Z,31.46
2016-07-31T13:09:37.218Z,31.5
2016-07-31T13:12:37.098Z,31.72
2016-07-31T13:13:36.352Z,31.76
2016-07-31T13:14:36.360Z,31.69
2016-07-31T13:15:36.923Z,31.72
2016-07-31T13:16:36.375Z,31.7
2016-07-31T13:17:36.385Z,31.7
2016-07-31T13:18:36.402Z,31.65
2016-07-31T13:19:36.404Z,31.48
2016-07-31T13:20:36.407Z,31.72
2016-07-31T13:21:36.424Z,31.63
2016-07-31T13:22:36.428Z,31.73
2016-07-31T13:23:36.437Z,31.68
2016-07-31T13:24:36.443Z,31.8
2016-07-31T13:25:36.456Z,31.69
2016-07-31T13:26:36.469Z,31.73
2016-07-31T13:27:36.473Z,31.73